createdAt,value
2022-08-05T00:01:27.822Z,9.25
2022-08-05T00:06:35.977Z,9.43
2022-08-05T00:11:49.049Z,9.35
2022-08-05T00:16:54.484Z,9.87
2022-08-05T00:21:57.809Z,9.82
2022-08-05T00:27:01.793Z,10.65
2022-08-05T00:32:15.003Z,11.57
2022-08-05T00:37:18.963Z,12.15
2022-08-05T00:42:32.641Z,11.32
2022-08-05T00:47:57.229Z,11.55
2022-08-05T00:53:01.518Z,10.50
2022-08-05T00:58:05.466Z,11.07
2022-08-05T01:03:22.558Z,11.00
2022-08-05T01:08:41.291Z,12.18
2022-08-05T01:13:59.175Z,12.55
2022-08-05T01:19:14.335Z,12.00
2022-08-05T01:24:35.082Z,12.98
2022-08-05T01:29:46.397Z,12.60
2022-08-05T01:34:54.726Z,12.38
2022-08-05T01:39:59.909Z,11.95
2022-08-05T01:45:08.251Z,12.55
2022-08-05T01:50:15.972Z,13.90
2022-08-05T01:55:23.702Z,12.23
2022-08-05T02:00:31.076Z,14.82
2022-08-05T02:05:37.928Z,14.05
2022-08-05T02:10:51.521Z,13.25
2022-08-05T02:16:04.924Z,14.48
2022-08-05T02:21:14.950Z,11.82
2022-08-05T02:26:26.505Z,14.10
2022-08-05T02:31:34.981Z,13.68
2022-08-05T02:36:43.782Z,14.07
2022-08-05T02:42:01.294Z,12.05
2022-08-05T02:47:09.260Z,13.82
2022-08-05T02:52:30.132Z,11.98
2022-08-05T02:58:11.119Z,14.70
2022-08-05T03:03:00.081Z,13.60
2022-08-05T03:08:08.769Z,14.13
2022-08-05T03:13:17.149Z,14.75
2022-08-05T03:18:30.087Z,13.20
2022-08-05T03:23:35.155Z,14.67
2022-08-05T03:28:41.928Z,15.48
2022-08-05T03:33:53.038Z,13.90
2022-08-05T03:38:56.752Z,15.82
2022-08-05T03:44:10.196Z,15.40
2022-08-05T03:49:16.857Z,14.30
2022-08-05T03:55:06.865Z,15.23
2022-08-05T03:59:59.489Z,16.00
2022-08-05T04:05:10.145Z,14.15
2022-08-05T04:10:14.099Z,13.93
2022-08-05T04:15:21.124Z,16.20
2022-08-05T04:20:29.542Z,16.02
2022-08-05T04:25:57.096Z,16.92
2022-08-05T04:30:58.704Z,17.08
2022-08-05T04:36:46.241Z,16.23
2022-08-05T04:41:37.744Z,16.98
2022-08-05T04:46:42.219Z,16.10
2022-08-05T04:52:00.215Z,16.45
2022-08-05T04:57:04.029Z,16.40
2022-08-05T05:02:41.368Z,17.55
2022-08-05T05:07:35.553Z,18.65
2022-08-05T05:12:39.325Z,19.13
2022-08-05T05:17:56.658Z,17.85
2022-08-05T05:23:08.423Z,18.33
2022-08-05T05:28:24.877Z,17.67
2022-08-05T05:33:28.289Z,18.15
2022-08-05T05:38:48.109Z,18.15
2022-08-05T05:43:58.579Z,18.65
2022-08-05T05:49:06.461Z,20.03
2022-08-05T05:54:49.968Z,20.17
2022-08-05T05:59:50.502Z,18.88
2022-08-05T06:04:56.192Z,19.40
2022-08-05T06:10:10.860Z,18.48
2022-08-05T06:15:24.204Z,16.65
2022-08-05T06:26:13.208Z,17.10
2022-08-05T06:30:57.169Z,17.33
2022-08-05T06:36:07.208Z,18.35
2022-08-05T06:41:14.805Z,17.85
2022-08-05T06:46:18.286Z,16.48
2022-08-05T06:51:29.422Z,17.15
2022-08-05T06:56:35.279Z,18.15
2022-08-05T07:01:40.545Z,16.33
2022-08-05T07:06:45.592Z,16.98
2022-08-05T07:11:55.944Z,16.13
2022-08-05T07:18:01.761Z,18.17
2022-08-05T07:22:30.239Z,17.73
2022-08-05T07:27:57.742Z,17.25
2022-08-05T07:32:58.602Z,16.80
2022-08-05T07:38:01.999Z,17.08
2022-08-05T07:43:14.451Z,15.50
2022-08-05T07:49:00.468Z,15.02
2022-08-05T07:53:50.585Z,15.82
2022-08-05T07:58:58.912Z,14.57
2022-08-05T08:04:03.183Z,12.65
2022-08-05T08:09:07.632Z,12.35
2022-08-05T08:14:12.495Z,11.23
2022-08-05T08:20:21.020Z,11.15
2022-08-05T08:24:51.928Z,10.20
2022-08-05T08:30:05.571Z,9.10
2022-08-05T08:35:21.049Z,9.27
2022-08-05T08:40:31.197Z,8.50
2022-08-05T08:45:39.174Z,8.02
2022-08-05T08:51:03.251Z,7.70
2022-08-05T08:56:08.858Z,8.13
2022-08-05T09:01:15.855Z,8.30
2022-08-05T09:06:21.321Z,8.18
2022-08-05T09:11:53.472Z,7.15
2022-08-05T09:16:53.003Z,7.90
2022-08-05T09:22:22.912Z,8.35
2022-08-05T09:28:03.962Z,8.50
2022-08-05T09:33:04.745Z,8.13
2022-08-05T09:38:16.252Z,9.47
2022-08-05T09:43:41.139Z,8.73
2022-08-05T09:48:55.434Z,8.57
2022-08-05T09:54:11.527Z,8.85
2022-08-05T09:59:17.509Z,9.05
2022-08-05T10:04:29.203Z,9.18
2022-08-05T10:09:45.148Z,8.57
2022-08-05T10:14:48.938Z,8.50
2022-08-05T10:20:04.076Z,8.85
2022-08-05T10:25:14.378Z,8.90
2022-08-05T10:31:20.185Z,8.60
2022-08-05T10:35:44.076Z,8.40
2022-08-05T10:40:58.430Z,8.55
2022-08-05T10:46:06.795Z,8.30
2022-08-05T10:51:22.327Z,8.35
2022-08-05T10:56:28.702Z,8.52
2022-08-05T11:01:55.362Z,8.18
2022-08-05T11:07:09.288Z,7.70
2022-08-05T11:12:50.379Z,8.02
2022-08-05T11:18:11.715Z,8.50
2022-08-05T11:23:33.615Z,8.15
2022-08-05T11:29:37.315Z,7.65
2022-08-05T11:34:59.584Z,8.48
2022-08-05T11:40:04.731Z,7.72
2022-08-05T11:45:14.248Z,7.93
2022-08-05T11:50:27.457Z,7.85
2022-08-05T11:55:36.512Z,8.27
2022-08-05T12:00:44.324Z,8.27
2022-08-05T12:05:50.493Z,8.07
2022-08-05T12:10:58.203Z,8.60
2022-08-05T12:16:01.603Z,8.00
2022-08-05T12:21:12.706Z,8.32
2022-08-05T12:26:17.608Z,8.35
2022-08-05T12:31:28.039Z,8.20
2022-08-05T12:36:44.859Z,7.90
2022-08-05T12:41:51.314Z,8.40
2022-08-05T12:47:01.810Z,8.10
2022-08-05T12:52:12.037Z,8.38
2022-08-05T12:57:24.002Z,8.73
2022-08-05T13:02:30.454Z,8.70
2022-08-05T13:07:59.199Z,8.35
2022-08-05T13:12:58.922Z,8.40
2022-08-05T13:18:02.486Z,10.55
2022-08-05T13:23:07.318Z,8.32
2022-08-05T13:28:13.048Z,8.30
2022-08-05T13:34:20.218Z,8.55
2022-08-05T13:38:42.773Z,8.73
2022-08-05T13:43:54.726Z,8.80
2022-08-05T13:49:00.897Z,8.50
2022-08-05T13:54:12.935Z,9.07
2022-08-05T13:59:20.277Z,8.00
2022-08-05T14:04:41.597Z,8.50
2022-08-05T14:09:46.510Z,8.30
2022-08-05T14:14:52.088Z,8.45
2022-08-05T14:20:01.030Z,8.60
2022-08-05T14:25:21.717Z,8.40
2022-08-05T14:30:28.390Z,8.07
2022-08-05T14:35:37.280Z,8.27
2022-08-05T14:40:53.814Z,8.02
2022-08-05T14:45:58.545Z,7.70
2022-08-05T14:51:01.875Z,8.02
2022-08-05T14:56:07.041Z,8.02
2022-08-05T15:01:15.518Z,7.70
2022-08-05T15:06:20.318Z,7.90
2022-08-05T15:11:52.478Z,7.60
2022-08-05T15:16:56.785Z,8.90
2022-08-05T15:22:01.457Z,8.90
2022-08-05T15:27:09.064Z,9.20
2022-08-05T15:32:14.236Z,8.68
2022-08-05T15:37:22.202Z,8.90
2022-08-05T15:48:04.523Z,9.02
2022-08-05T15:53:09.208Z,8.90
2022-08-05T15:58:16.789Z,8.65
2022-08-05T16:03:21.637Z,8.45
2022-08-05T16:08:25.083Z,8.57
2022-08-05T16:13:35.103Z,9.10
2022-08-05T16:18:51.700Z,9.00
2022-08-05T16:23:58.013Z,9.25
2022-08-05T16:29:02.467Z,8.75
2022-08-05T16:34:07.954Z,8.80
2022-08-05T16:39:13.835Z,8.95
2022-08-05T16:44:18.713Z,8.75
2022-08-05T16:49:26.698Z,9.23
2022-08-05T16:54:33.037Z,8.60
2022-08-05T17:00:00.311Z,9.32
2022-08-05T17:10:07.118Z,9.77
2022-08-05T17:15:15.698Z,9.50
2022-08-05T17:20:24.963Z,10.43
2022-08-05T17:25:40.198Z,10.20
2022-08-05T17:30:52.059Z,9.50
2022-08-05T17:36:07.464Z,10.77
2022-08-05T17:42:16.619Z,10.00
2022-08-05T17:46:36.477Z,10.23
2022-08-05T17:51:41.452Z,10.88
2022-08-05T17:56:45.144Z,10.27
2022-08-05T18:01:52.551Z,11.05
2022-08-05T18:07:01.106Z,11.35
2022-08-05T18:12:05.072Z,11.02
2022-08-05T18:17:58.926Z,12.07
2022-08-05T18:22:36.208Z,10.85
2022-08-05T18:27:51.968Z,11.48
2022-08-05T18:33:00.418Z,11.13
2022-08-05T18:38:05.802Z,11.50
2022-08-05T18:43:16.351Z,12.18
2022-08-05T18:48:30.736Z,12.07
2022-08-05T18:53:45.789Z,11.93
2022-08-05T18:58:54.960Z,12.98
2022-08-05T19:04:05.365Z,12.38
2022-08-05T19:09:10.329Z,12.70
2022-08-05T19:14:52.132Z,12.57
2022-08-05T19:19:37.095Z,13.80
2022-08-05T19:24:56.323Z,12.98
2022-08-05T19:30:02.850Z,13.35
2022-08-05T19:35:08.334Z,14.35
2022-08-05T19:40:15.047Z,13.93
2022-08-05T19:45:18.649Z,14.25
2022-08-05T19:50:21.986Z,13.70
2022-08-05T19:56:14.733Z,14.70
2022-08-05T20:00:53.380Z,14.45
2022-08-05T20:05:56.806Z,14.30
2022-08-05T20:11:03.132Z,14.35
2022-08-05T20:16:06.915Z,13.27
2022-08-05T20:21:10.826Z,14.48
2022-08-05T20:26:17.264Z,13.98
2022-08-05T20:31:22.849Z,13.73
2022-08-05T20:36:31.828Z,14.10
2022-08-05T20:41:44.175Z,13.98
2022-08-05T20:46:48.768Z,14.57
2022-08-05T20:51:53.441Z,15.50
2022-08-05T20:56:59.085Z,13.48
2022-08-05T21:02:02.419Z,14.60
2022-08-05T21:07:08.955Z,13.77
2022-08-05T21:12:13.808Z,14.68
2022-08-05T21:17:20.581Z,15.38
2022-08-05T21:22:25.395Z,14.77
2022-08-05T21:32:42.355Z,15.52
2022-08-05T21:37:53.174Z,15.25
2022-08-05T21:42:59.256Z,15.27
2022-08-05T21:48:06.417Z,14.52
2022-08-05T21:53:16.694Z,14.70
2022-08-05T21:58:24.990Z,14.40
2022-08-05T22:03:52.018Z,14.05
2022-08-05T22:08:56.695Z,15.05
2022-08-05T22:14:34.386Z,14.77
2022-08-05T22:19:57.414Z,13.68
2022-08-05T22:25:08.760Z,15.35
2022-08-05T22:30:35.359Z,14.98
2022-08-05T22:35:49.221Z,14.77
2022-08-05T22:40:54.858Z,15.50
2022-08-05T22:46:00.098Z,14.98
2022-08-05T22:51:07.050Z,14.82
2022-08-05T22:56:10.678Z,14.68
2022-08-05T23:01:17.937Z,15.48
2022-08-05T23:06:26.374Z,14.80
2022-08-05T23:11:30.209Z,14.68
2022-08-05T23:16:52.932Z,15.48
2022-08-05T23:21:56.210Z,15.00
2022-08-05T23:26:59.693Z,15.03
2022-08-05T23:32:06.054Z,15.32
2022-08-05T23:37:09.405Z,16.10
2022-08-05T23:42:14.812Z,14.82
2022-08-05T23:47:28.377Z,14.88
2022-08-05T23:52:49.745Z,15.95
2022-08-05T23:57:54.055Z,15.82
